createdAt,value
2023-10-30T00:01:20.941Z,2.90
2023-10-30T00:03:49.375Z,2.60
2023-10-30T00:06:16.990Z,2.80
2023-10-30T00:08:44.770Z,2.70
2023-10-30T00:11:12.346Z,2.60
2023-10-30T00:13:39.819Z,2.90
2023-10-30T00:16:07.387Z,4.00
2023-10-30T00:18:36.131Z,5.10
2023-10-30T00:21:03.805Z,4.70
2023-10-30T00:23:31.307Z,4.90
2023-10-30T00:25:59.105Z,4.20
2023-10-30T00:28:28.950Z,3.40
2023-10-30T00:30:56.568Z,3.00
2023-10-30T00:33:24.249Z,2.50
2023-10-30T00:35:51.710Z,3.40
2023-10-30T00:38:19.278Z,4.20
2023-10-30T00:40:46.881Z,3.20
2023-10-30T00:43:14.465Z,3.40
2023-10-30T00:45:41.922Z,2.70
2023-10-30T00:48:09.560Z,3.40
2023-10-30T00:50:37.570Z,3.30
2023-10-30T00:53:05.379Z,3.10
2023-10-30T00:55:33.022Z,3.30
2023-10-30T00:58:00.693Z,2.80
2023-10-30T01:00:28.346Z,2.00
2023-10-30T01:02:56.120Z,1.40
2023-10-30T01:05:23.987Z,1.20
2023-10-30T01:07:52.176Z,1.00
2023-10-30T01:10:20.609Z,1.10
2023-10-30T01:12:48.234Z,1.60
2023-10-30T01:15:17.642Z,1.10
2023-10-30T01:17:45.298Z,1.20
2023-10-30T01:20:14.018Z,1.60
2023-10-30T01:22:41.558Z,1.30
2023-10-30T01:25:09.251Z,1.40
2023-10-30T01:27:36.919Z,2.10
2023-10-30T01:30:05.074Z,4.10
2023-10-30T01:32:32.682Z,2.90
2023-10-30T01:35:00.404Z,2.50
2023-10-30T01:37:27.925Z,2.40
2023-10-30T01:39:55.888Z,2.20
2023-10-30T01:42:23.420Z,2.20
2023-10-30T01:44:56.082Z,2.40
2023-10-30T01:47:27.091Z,2.60
2023-10-30T01:49:55.331Z,1.90
2023-10-30T01:52:22.962Z,1.90
2023-10-30T01:54:52.027Z,1.70
2023-10-30T01:57:20.225Z,1.80
2023-10-30T01:59:53.017Z,1.50
2023-10-30T02:02:21.309Z,1.80
2023-10-30T02:04:49.110Z,2.00
2023-10-30T02:07:19.372Z,1.80
2023-10-30T02:09:54.779Z,2.10
2023-10-30T02:12:22.244Z,1.50
2023-10-30T02:14:49.643Z,1.90
2023-10-30T02:17:17.173Z,1.70
2023-10-30T02:19:44.655Z,1.70
2023-10-30T02:22:12.198Z,1.30
2023-10-30T02:24:39.880Z,1.10
2023-10-30T02:27:07.694Z,1.30
2023-10-30T02:29:35.354Z,1.30
2023-10-30T02:32:03.668Z,1.30
2023-10-30T02:34:31.309Z,1.40
2023-10-30T02:37:00.035Z,1.30
2023-10-30T02:39:33.975Z,1.30
2023-10-30T02:42:02.803Z,1.40
2023-10-30T02:44:30.790Z,1.40
2023-10-30T02:46:58.405Z,1.70
2023-10-30T02:49:28.834Z,2.10
2023-10-30T02:51:56.989Z,1.90
2023-10-30T02:54:24.451Z,2.20
2023-10-30T02:56:51.925Z,1.80
2023-10-30T02:59:19.450Z,1.50
2023-10-30T03:01:46.905Z,1.50
2023-10-30T03:04:17.836Z,1.40
2023-10-30T03:06:45.559Z,1.30
2023-10-30T03:09:13.119Z,1.90
2023-10-30T03:11:40.586Z,1.70
2023-10-30T03:14:08.234Z,2.20
2023-10-30T03:16:35.809Z,1.50
2023-10-30T03:19:03.246Z,1.40
2023-10-30T03:21:30.821Z,1.60
2023-10-30T03:23:58.377Z,1.70
2023-10-30T03:26:26.643Z,1.50
2023-10-30T03:28:54.246Z,1.70
2023-10-30T03:31:21.900Z,1.40
2023-10-30T03:33:49.516Z,1.50
2023-10-30T03:36:21.717Z,1.20
2023-10-30T03:38:49.572Z,1.40
2023-10-30T03:41:17.383Z,1.20
2023-10-30T03:43:46.748Z,0.90
2023-10-30T03:46:14.443Z,1.70
2023-10-30T03:48:43.570Z,1.20
2023-10-30T03:51:11.174Z,1.20
2023-10-30T03:53:38.671Z,1.10
2023-10-30T03:56:09.434Z,1.80
2023-10-30T03:58:37.026Z,1.00
2023-10-30T04:01:10.642Z,1.30
2023-10-30T04:03:38.287Z,1.00
2023-10-30T04:06:05.932Z,1.10
2023-10-30T04:08:33.365Z,1.10
2023-10-30T04:11:02.860Z,1.60
2023-10-30T04:13:30.513Z,1.40
2023-10-30T04:15:58.611Z,1.30
2023-10-30T04:18:26.896Z,1.30
2023-10-30T04:20:54.401Z,1.30
2023-10-30T04:23:21.954Z,1.10
2023-10-30T04:25:49.830Z,1.40
2023-10-30T04:28:17.388Z,1.30
2023-10-30T04:30:44.900Z,1.90
2023-10-30T04:33:12.556Z,1.60
2023-10-30T04:35:40.244Z,1.10
2023-10-30T04:38:07.726Z,1.20
2023-10-30T04:40:35.263Z,1.00
2023-10-30T04:43:03.554Z,0.90
2023-10-30T04:45:31.271Z,1.60
2023-10-30T04:47:59.669Z,1.20
2023-10-30T04:50:27.380Z,1.00
2023-10-30T04:52:54.947Z,1.10
2023-10-30T04:55:22.568Z,1.50
2023-10-30T04:57:50.138Z,1.40
2023-10-30T05:00:18.019Z,1.00
2023-10-30T05:02:48.431Z,1.10
2023-10-30T05:05:16.276Z,1.10
2023-10-30T05:07:48.066Z,1.10
2023-10-30T05:10:16.170Z,1.30
2023-10-30T05:12:43.773Z,1.20
2023-10-30T05:15:11.476Z,1.30
2023-10-30T05:17:39.581Z,1.00
2023-10-30T05:20:07.949Z,1.40
2023-10-30T05:22:35.497Z,1.00
2023-10-30T05:25:03.943Z,1.20
2023-10-30T05:27:31.774Z,1.30
2023-10-30T05:29:59.841Z,1.20
2023-10-30T05:32:27.369Z,1.30
2023-10-30T05:34:55.020Z,1.20
2023-10-30T05:37:22.676Z,1.10
2023-10-30T05:39:51.548Z,1.00
2023-10-30T05:42:19.473Z,1.00
2023-10-30T05:44:47.184Z,1.00
2023-10-30T05:47:19.115Z,1.20
2023-10-30T05:49:48.054Z,1.70
2023-10-30T05:52:15.781Z,1.30
2023-10-30T05:54:43.389Z,1.60
2023-10-30T05:57:14.035Z,1.60
2023-10-30T05:59:42.972Z,2.50
2023-10-30T06:02:10.564Z,1.60
2023-10-30T06:04:38.547Z,1.60
2023-10-30T06:07:06.247Z,2.50
2023-10-30T06:09:34.429Z,1.50
2023-10-30T06:12:02.192Z,1.60
2023-10-30T06:14:29.952Z,1.50
2023-10-30T06:16:59.857Z,1.20
2023-10-30T06:19:27.499Z,1.40
2023-10-30T06:21:55.177Z,1.50
2023-10-30T06:24:22.779Z,3.30
2023-10-30T06:26:50.337Z,1.10
2023-10-30T06:29:17.963Z,2.90
2023-10-30T06:31:45.497Z,2.00
2023-10-30T06:34:14.557Z,5.30
2023-10-30T06:36:56.492Z,1.50
2023-10-30T06:39:24.184Z,0.90
2023-10-30T06:41:57.003Z,1.60
2023-10-30T06:44:27.711Z,1.40
2023-10-30T06:47:01.833Z,1.20
2023-10-30T06:49:29.851Z,1.00
2023-10-30T06:51:57.544Z,1.70
2023-10-30T06:54:25.365Z,2.50
2023-10-30T06:56:52.903Z,1.60
2023-10-30T06:59:23.705Z,1.90
2023-10-30T07:01:52.850Z,1.60
2023-10-30T07:04:24.630Z,1.90
2023-10-30T07:06:52.878Z,1.10
2023-10-30T07:09:20.796Z,1.40
2023-10-30T07:11:48.637Z,1.10
2023-10-30T07:14:18.331Z,1.20
2023-10-30T07:17:04.864Z,1.30
2023-10-30T07:19:34.660Z,1.10
2023-10-30T07:22:03.947Z,1.20
2023-10-30T07:24:31.713Z,1.20
2023-10-30T07:26:59.785Z,1.20
2023-10-30T07:29:27.405Z,1.20
2023-10-30T07:31:58.508Z,1.20
2023-10-30T07:34:26.333Z,1.70
2023-10-30T07:36:54.107Z,1.50
2023-10-30T07:39:21.962Z,1.30
2023-10-30T07:41:52.899Z,1.20
2023-10-30T07:44:21.231Z,1.40
2023-10-30T07:46:48.976Z,1.40
2023-10-30T07:49:16.727Z,1.10
2023-10-30T07:51:44.618Z,1.30
2023-10-30T07:54:12.487Z,1.40
2023-10-30T07:56:40.339Z,1.20
2023-10-30T07:59:12.451Z,1.40
2023-10-30T08:01:40.959Z,2.70
2023-10-30T08:04:11.267Z,3.20
2023-10-30T08:06:38.866Z,1.70
2023-10-30T08:09:06.714Z,1.90
2023-10-30T08:11:34.191Z,1.70
2023-10-30T08:14:02.020Z,3.00
2023-10-30T08:16:29.796Z,2.30
2023-10-30T08:18:57.368Z,1.20
2023-10-30T08:21:25.601Z,1.30
2023-10-30T08:23:53.212Z,1.20
2023-10-30T08:26:20.978Z,1.20
2023-10-30T08:28:48.697Z,1.20
2023-10-30T08:31:22.927Z,1.60
2023-10-30T08:33:51.155Z,1.20
2023-10-30T08:36:23.018Z,1.30
2023-10-30T08:38:52.348Z,1.70
2023-10-30T08:41:22.161Z,1.20
2023-10-30T08:43:54.214Z,1.40
2023-10-30T08:46:30.007Z,1.40
2023-10-30T08:48:58.966Z,1.30
2023-10-30T08:51:28.906Z,1.50
2023-10-30T08:53:57.657Z,1.40
2023-10-30T08:56:25.246Z,1.00
2023-10-30T08:58:53.045Z,1.00
2023-10-30T09:01:21.465Z,1.60
2023-10-30T09:03:54.072Z,1.10
2023-10-30T09:06:25.892Z,1.30
2023-10-30T09:09:06.433Z,1.30
2023-10-30T09:11:46.123Z,1.40
2023-10-30T09:14:13.955Z,1.60
2023-10-30T09:16:42.482Z,1.30
2023-10-30T09:19:10.093Z,1.40
2023-10-30T09:21:38.099Z,1.50
2023-10-30T09:24:06.726Z,1.40
2023-10-30T09:26:34.737Z,1.40
2023-10-30T09:29:11.547Z,1.30
2023-10-30T09:32:04.005Z,1.30
2023-10-30T09:34:32.197Z,1.30
2023-10-30T09:37:00.372Z,1.40
2023-10-30T09:39:28.549Z,1.60
2023-10-30T09:41:58.984Z,1.20
2023-10-30T09:44:26.838Z,0.90
2023-10-30T09:46:54.842Z,1.10
2023-10-30T09:49:23.811Z,1.60
2023-10-30T09:51:59.935Z,1.10
2023-10-30T09:54:41.402Z,1.50
2023-10-30T09:57:11.858Z,1.40
2023-10-30T09:59:40.073Z,1.10
2023-10-30T10:02:08.534Z,1.40
2023-10-30T10:04:40.321Z,1.00
2023-10-30T10:07:08.201Z,1.20
2023-10-30T10:09:35.782Z,1.50
2023-10-30T10:12:12.665Z,1.70
2023-10-30T10:14:41.910Z,1.30
2023-10-30T10:17:10.315Z,1.20
2023-10-30T10:22:34.714Z,1.20
2023-10-30T10:25:05.232Z,1.50
2023-10-30T10:27:33.398Z,1.20
2023-10-30T10:30:01.283Z,1.30
2023-10-30T10:32:32.793Z,1.20
2023-10-30T10:35:07.220Z,1.30
2023-10-30T10:37:35.418Z,1.20
2023-10-30T10:40:07.178Z,1.30
2023-10-30T10:42:35.455Z,1.30
2023-10-30T10:45:03.739Z,1.40
2023-10-30T10:47:34.586Z,1.70
2023-10-30T10:50:02.745Z,0.90
2023-10-30T10:52:47.846Z,1.40
2023-10-30T10:55:16.543Z,1.30
2023-10-30T10:57:54.738Z,1.30
2023-10-30T11:00:23.120Z,1.50
2023-10-30T11:02:53.800Z,1.40
2023-10-30T11:05:30.558Z,1.80
2023-10-30T11:08:28.456Z,1.40
2023-10-30T11:11:02.270Z,1.40
2023-10-30T11:14:11.784Z,1.50
2023-10-30T11:17:00.444Z,1.30
2023-10-30T11:19:30.050Z,1.60
2023-10-30T11:21:58.049Z,1.30
2023-10-30T11:24:45.233Z,1.10
2023-10-30T11:27:28.423Z,1.20
2023-10-30T11:30:09.638Z,1.20
2023-10-30T11:32:46.770Z,1.80
2023-10-30T11:35:17.063Z,1.40
2023-10-30T11:37:44.646Z,1.20
2023-10-30T11:40:15.805Z,1.30
2023-10-30T11:42:44.928Z,1.10
2023-10-30T11:45:26.323Z,1.30
2023-10-30T11:48:00.227Z,1.10
2023-10-30T11:50:41.136Z,1.40
2023-10-30T11:53:10.090Z,1.20
2023-10-30T11:55:39.100Z,1.30
2023-10-30T11:58:07.511Z,2.70
2023-10-30T12:00:35.534Z,1.00
2023-10-30T12:03:04.866Z,1.30
2023-10-30T12:05:33.099Z,1.40
2023-10-30T12:08:02.516Z,1.40
2023-10-30T12:10:30.089Z,1.30
2023-10-30T12:12:58.090Z,1.60
2023-10-30T12:15:29.041Z,1.00
2023-10-30T12:17:59.045Z,0.90
2023-10-30T12:20:28.316Z,1.10
2023-10-30T12:22:56.860Z,1.20
2023-10-30T12:25:24.822Z,1.00
2023-10-30T12:28:06.063Z,1.10
2023-10-30T12:30:38.301Z,1.00
2023-10-30T12:33:15.395Z,0.90
2023-10-30T12:35:44.527Z,1.10
2023-10-30T12:38:16.142Z,1.10
2023-10-30T12:40:44.903Z,1.40
2023-10-30T12:43:12.908Z,1.60
2023-10-30T12:45:43.508Z,1.60
2023-10-30T12:48:11.426Z,0.90
2023-10-30T12:50:40.024Z,1.00
2023-10-30T12:53:11.204Z,1.10
2023-10-30T12:55:43.304Z,1.60
2023-10-30T12:58:10.927Z,1.10
2023-10-30T13:00:38.712Z,1.10
2023-10-30T13:03:06.481Z,1.10
2023-10-30T13:05:34.546Z,1.20
2023-10-30T13:08:05.503Z,1.40
2023-10-30T13:10:33.883Z,1.20
2023-10-30T13:13:01.693Z,1.00
2023-10-30T13:15:32.370Z,1.40
2023-10-30T13:18:03.639Z,1.20
2023-10-30T13:20:33.411Z,1.70
2023-10-30T13:23:03.792Z,1.40
2023-10-30T13:25:32.902Z,1.10
2023-10-30T13:28:00.565Z,1.20
2023-10-30T13:30:30.050Z,1.40
2023-10-30T13:33:01.939Z,1.50
2023-10-30T13:35:29.837Z,1.70
2023-10-30T13:38:00.483Z,1.30
2023-10-30T13:40:28.120Z,1.50
2023-10-30T13:43:01.623Z,1.40
2023-10-30T13:45:32.664Z,1.50
2023-10-30T13:48:00.532Z,1.20
2023-10-30T13:50:31.054Z,1.20
2023-10-30T13:52:58.859Z,1.30
2023-10-30T13:55:26.499Z,2.40
2023-10-30T13:57:54.573Z,1.50
2023-10-30T14:00:22.393Z,1.30
2023-10-30T14:02:54.851Z,1.40
2023-10-30T14:05:31.046Z,1.40
2023-10-30T14:08:02.254Z,1.50
2023-10-30T14:10:29.994Z,1.80
2023-10-30T14:16:42.502Z,1.20
2023-10-30T14:19:10.608Z,2.10
2023-10-30T14:21:40.410Z,2.00
2023-10-30T14:24:13.225Z,1.70
2023-10-30T14:26:40.962Z,1.00
2023-10-30T14:29:11.595Z,1.30
2023-10-30T14:31:39.523Z,2.30
2023-10-30T14:34:07.433Z,2.70
2023-10-30T14:36:35.236Z,1.60
2023-10-30T14:39:07.379Z,1.30
2023-10-30T14:41:34.985Z,1.80
2023-10-30T14:44:07.654Z,1.50
2023-10-30T14:46:35.435Z,1.20
2023-10-30T14:49:06.908Z,1.80
2023-10-30T14:51:47.316Z,1.80
2023-10-30T14:54:15.593Z,1.80
2023-10-30T14:56:43.347Z,1.60
2023-10-30T14:59:11.150Z,1.50
2023-10-30T15:01:40.393Z,1.70
2023-10-30T15:04:08.446Z,2.20
2023-10-30T15:06:38.951Z,1.10
2023-10-30T15:09:07.168Z,1.00
2023-10-30T15:11:37.500Z,1.40
2023-10-30T15:14:05.447Z,1.60
2023-10-30T15:16:33.267Z,1.20
2023-10-30T15:19:01.518Z,1.40
2023-10-30T15:21:32.408Z,1.30
2023-10-30T15:24:00.156Z,1.70
2023-10-30T15:26:27.883Z,1.90
2023-10-30T15:28:55.661Z,1.70
2023-10-30T15:31:26.172Z,1.90
2023-10-30T15:33:57.553Z,1.40
2023-10-30T15:36:26.170Z,1.60
2023-10-30T15:38:53.789Z,1.30
2023-10-30T15:41:24.097Z,1.60
2023-10-30T15:43:51.703Z,1.50
2023-10-30T15:46:19.444Z,1.70
2023-10-30T15:48:49.233Z,2.10
2023-10-30T15:51:19.571Z,1.60
2023-10-30T15:59:02.861Z,1.50
2023-10-30T16:01:31.997Z,5.10
2023-10-30T16:04:00.511Z,3.30
2023-10-30T16:06:30.173Z,2.10
2023-10-30T16:08:58.338Z,1.10
2023-10-30T16:11:30.498Z,1.50
2023-10-30T16:13:58.678Z,1.50
2023-10-30T16:16:26.371Z,1.50
2023-10-30T16:21:26.877Z,1.40
2023-10-30T16:23:54.919Z,1.40
2023-10-30T16:26:22.707Z,1.90
2023-10-30T16:28:52.981Z,1.10
2023-10-30T16:31:20.823Z,1.20
2023-10-30T16:33:48.555Z,1.30
2023-10-30T16:36:16.218Z,1.10
2023-10-30T16:38:43.895Z,1.10
2023-10-30T16:41:11.578Z,1.60
2023-10-30T16:43:39.185Z,1.50
2023-10-30T16:46:06.805Z,1.30
2023-10-30T16:48:34.418Z,1.20
2023-10-30T16:51:02.466Z,1.20
2023-10-30T16:53:30.248Z,1.40
2023-10-30T16:55:58.991Z,1.20
2023-10-30T16:58:26.837Z,1.80
2023-10-30T17:00:54.395Z,1.50
2023-10-30T17:03:22.120Z,1.20
2023-10-30T17:05:49.867Z,1.30
2023-10-30T17:08:18.014Z,1.70
2023-10-30T17:10:45.597Z,1.50
2023-10-30T17:13:13.334Z,1.20
2023-10-30T17:15:42.968Z,1.10
2023-10-30T17:18:10.566Z,1.10
2023-10-30T17:20:41.080Z,2.30
2023-10-30T17:23:10.412Z,1.30
2023-10-30T17:25:39.551Z,1.40
2023-10-30T17:28:07.271Z,1.30
2023-10-30T17:30:34.830Z,1.10
2023-10-30T17:33:02.653Z,1.30
2023-10-30T17:35:30.321Z,1.30
2023-10-30T17:37:59.483Z,1.40
2023-10-30T17:40:27.151Z,1.30
2023-10-30T17:42:54.761Z,1.00
2023-10-30T17:45:22.334Z,1.30
2023-10-30T17:47:49.879Z,1.00
2023-10-30T17:50:20.191Z,1.10
2023-10-30T17:52:49.591Z,1.10
2023-10-30T17:55:19.735Z,1.10
2023-10-30T17:57:47.416Z,2.00
2023-10-30T18:00:15.455Z,1.20
2023-10-30T18:02:43.234Z,2.20
2023-10-30T18:05:11.751Z,1.20
2023-10-30T18:07:39.431Z,2.00
2023-10-30T18:10:09.451Z,1.40
2023-10-30T18:12:37.106Z,1.30
2023-10-30T18:15:05.483Z,1.40
2023-10-30T18:17:34.230Z,1.40
2023-10-30T18:20:01.968Z,1.20
2023-10-30T18:22:29.792Z,1.30
2023-10-30T18:24:57.694Z,1.30
2023-10-30T18:27:25.298Z,1.50
2023-10-30T18:29:52.914Z,1.60
2023-10-30T18:32:20.463Z,1.10
2023-10-30T18:34:48.245Z,1.30
2023-10-30T18:37:15.815Z,1.30
2023-10-30T18:39:43.462Z,1.00
2023-10-30T18:42:11.185Z,1.50
2023-10-30T18:44:38.785Z,1.70
2023-10-30T18:47:06.687Z,1.20
2023-10-30T18:49:34.456Z,1.60
2023-10-30T18:52:02.323Z,1.20
2023-10-30T18:54:30.165Z,1.80
2023-10-30T18:56:57.829Z,1.10
2023-10-30T18:59:26.179Z,1.30
2023-10-30T19:01:53.804Z,1.60
2023-10-30T19:04:21.415Z,1.30
2023-10-30T19:06:49.766Z,2.20
2023-10-30T19:09:17.491Z,1.70
2023-10-30T19:11:45.894Z,1.60
2023-10-30T19:14:13.774Z,1.40
2023-10-30T19:16:41.285Z,1.20
2023-10-30T19:19:09.118Z,1.60
2023-10-30T19:21:36.624Z,1.30
2023-10-30T19:24:04.706Z,1.40
2023-10-30T19:26:32.404Z,1.20
2023-10-30T19:28:59.919Z,1.50
2023-10-30T19:31:27.662Z,1.30
2023-10-30T19:33:55.276Z,1.20
2023-10-30T19:36:22.926Z,1.10
2023-10-30T19:38:50.768Z,1.20
2023-10-30T19:41:18.551Z,1.30
2023-10-30T19:43:46.105Z,1.70
2023-10-30T19:46:21.738Z,1.80
2023-10-30T19:48:53.527Z,1.40
2023-10-30T19:51:21.223Z,1.60
2023-10-30T19:53:48.690Z,1.70
2023-10-30T19:56:16.623Z,1.70
2023-10-30T19:58:45.968Z,1.30
2023-10-30T20:01:13.703Z,1.40
2023-10-30T20:03:41.685Z,1.80
2023-10-30T20:06:10.417Z,1.40
2023-10-30T20:08:38.992Z,2.00
2023-10-30T20:11:06.519Z,2.20
2023-10-30T20:13:37.330Z,1.20
2023-10-30T20:16:08.285Z,1.90
2023-10-30T20:18:36.046Z,1.60
2023-10-30T20:21:03.977Z,1.50
2023-10-30T20:23:31.567Z,1.50
2023-10-30T20:25:59.235Z,1.80
2023-10-30T20:28:26.808Z,1.50
2023-10-30T20:30:54.366Z,1.60
2023-10-30T20:33:22.249Z,1.40
2023-10-30T20:35:49.781Z,1.50
2023-10-30T20:38:17.297Z,2.30
2023-10-30T20:40:44.903Z,1.70
2023-10-30T20:43:13.598Z,1.60
2023-10-30T20:45:44.490Z,1.80
2023-10-30T20:48:12.142Z,1.50
2023-10-30T20:50:39.772Z,2.00
2023-10-30T20:53:07.433Z,1.70
2023-10-30T20:55:35.090Z,2.30
2023-10-30T20:58:02.673Z,1.70
2023-10-30T21:00:30.168Z,1.70
2023-10-30T21:02:57.854Z,1.40
2023-10-30T21:05:26.131Z,2.10
2023-10-30T21:07:53.679Z,1.60
2023-10-30T21:10:21.386Z,2.00
2023-10-30T21:12:48.921Z,1.60
2023-10-30T21:15:16.570Z,1.70
2023-10-30T21:17:44.180Z,2.70
2023-10-30T21:20:12.077Z,2.10
2023-10-30T21:22:39.602Z,1.90
2023-10-30T21:25:07.771Z,2.00
2023-10-30T21:27:35.378Z,1.50
2023-10-30T21:30:03.351Z,2.10
2023-10-30T21:32:30.892Z,2.10
2023-10-30T21:34:58.442Z,1.80
2023-10-30T21:37:26.028Z,2.00
2023-10-30T21:39:53.657Z,4.00
2023-10-30T21:42:21.282Z,2.00
2023-10-30T21:44:49.104Z,2.80
2023-10-30T21:47:16.830Z,1.80
2023-10-30T21:49:44.416Z,2.30
2023-10-30T21:52:12.100Z,1.90
2023-10-30T21:54:39.735Z,2.20
2023-10-30T21:57:07.357Z,2.00
2023-10-30T21:59:34.872Z,2.10
2023-10-30T22:02:02.489Z,2.30
2023-10-30T22:04:30.859Z,2.50
2023-10-30T22:06:58.513Z,2.50
2023-10-30T22:09:26.420Z,2.20
2023-10-30T22:11:53.898Z,2.00
2023-10-30T22:14:24.414Z,1.70
2023-10-30T22:16:52.509Z,2.10
2023-10-30T22:19:20.021Z,2.40
2023-10-30T22:21:47.499Z,2.40
2023-10-30T22:24:15.069Z,2.30
2023-10-30T22:26:42.574Z,2.10
2023-10-30T22:29:10.317Z,2.60
2023-10-30T22:31:37.963Z,2.50
2023-10-30T22:34:05.619Z,2.90
2023-10-30T22:36:33.277Z,2.90
2023-10-30T22:39:00.783Z,2.00
2023-10-30T22:41:28.413Z,2.10
2023-10-30T22:43:56.003Z,2.70
2023-10-30T22:46:23.650Z,2.50
2023-10-30T22:48:51.213Z,2.40
2023-10-30T22:51:18.840Z,2.20
2023-10-30T22:53:46.336Z,2.80
2023-10-30T22:56:13.934Z,2.90
2023-10-30T22:58:44.205Z,2.50
2023-10-30T23:01:11.877Z,3.00
2023-10-30T23:03:39.779Z,2.80
2023-10-30T23:06:08.758Z,2.40
2023-10-30T23:08:36.408Z,2.50
2023-10-30T23:11:04.377Z,2.30
2023-10-30T23:13:32.011Z,2.10
2023-10-30T23:15:59.895Z,2.10
2023-10-30T23:18:27.351Z,2.30
2023-10-30T23:20:54.936Z,2.40
2023-10-30T23:23:22.944Z,1.90
2023-10-30T23:25:50.591Z,2.60
2023-10-30T23:28:18.107Z,2.50
2023-10-30T23:30:47.098Z,2.50
2023-10-30T23:33:14.610Z,2.40
2023-10-30T23:35:42.108Z,2.80
2023-10-30T23:38:15.010Z,2.90
2023-10-30T23:40:43.249Z,2.30
2023-10-30T23:43:10.914Z,2.60
2023-10-30T23:45:38.433Z,2.10
2023-10-30T23:48:06.317Z,2.60
2023-10-30T23:50:34.029Z,2.20
2023-10-30T23:53:01.559Z,2.40
2023-10-30T23:55:29.103Z,3.10
2023-10-30T23:57:56.615Z,2.30
